sensor_id;sensor_type;location;lat;lon;timestamp;P1;durP1;ratioP1;P2;durP2;ratioP2
21036;SDS011;10677;50.942;4.028;2023-04-29T00:01:04;160.63;;;65.68;;
21036;SDS011;10677;50.942;4.028;2023-04-29T00:03:29;165.80;;;65.30;;
21036;SDS011;10677;50.942;4.028;2023-04-29T00:05:58;160.43;;;61.90;;
21036;SDS011;10677;50.942;4.028;2023-04-29T00:08:24;147.95;;;59.22;;
21036;SDS011;10677;50.942;4.028;2023-04-29T00:10:50;141.15;;;53.03;;
21036;SDS011;10677;50.942;4.028;2023-04-29T00:13:16;114.70;;;44.88;;
21036;SDS011;10677;50.942;4.028;2023-04-29T00:15:42;106.80;;;43.00;;
21036;SDS011;10677;50.942;4.028;2023-04-29T00:18:08;103.63;;;43.15;;
21036;SDS011;10677;50.942;4.028;2023-04-29T00:20:35;112.15;;;45.90;;
21036;SDS011;10677;50.942;4.028;2023-04-29T00:23:02;109.65;;;46.33;;
21036;SDS011;10677;50.942;4.028;2023-04-29T00:25:28;113.53;;;46.30;;
21036;SDS011;10677;50.942;4.028;2023-04-29T00:27:54;87.80;;;36.63;;
21036;SDS011;10677;50.942;4.028;2023-04-29T00:30:20;80.85;;;36.90;;
21036;SDS011;10677;50.942;4.028;2023-04-29T00:32:45;74.70;;;33.20;;
21036;SDS011;10677;50.942;4.028;2023-04-29T00:35:11;70.45;;;32.55;;
21036;SDS011;10677;50.942;4.028;2023-04-29T00:37:37;71.88;;;32.20;;
21036;SDS011;10677;50.942;4.028;2023-04-29T00:40:03;67.45;;;30.98;;
21036;SDS011;10677;50.942;4.028;2023-04-29T00:42:30;61.00;;;29.30;;
21036;SDS011;10677;50.942;4.028;2023-04-29T00:44:59;54.67;;;24.48;;
21036;SDS011;10677;50.942;4.028;2023-04-29T00:47:24;53.40;;;26.52;;
21036;SDS011;10677;50.942;4.028;2023-04-29T00:49:50;50.00;;;25.00;;
21036;SDS011;10677;50.942;4.028;2023-04-29T00:52:16;55.42;;;27.33;;
21036;SDS011;10677;50.942;4.028;2023-04-29T00:54:43;67.95;;;29.70;;
21036;SDS011;10677;50.942;4.028;2023-04-29T00:57:09;62.90;;;29.70;;
21036;SDS011;10677;50.942;4.028;2023-04-29T00:59:35;64.20;;;30.25;;
21036;SDS011;10677;50.942;4.028;2023-04-29T01:02:02;63.08;;;28.63;;
21036;SDS011;10677;50.942;4.028;2023-04-29T01:04:29;70.32;;;29.23;;
21036;SDS011;10677;50.942;4.028;2023-04-29T01:17:55;75.38;;;31.17;;
21036;SDS011;10677;50.942;4.028;2023-04-29T01:20:44;75.88;;;34.35;;
21036;SDS011;10677;50.942;4.028;2023-04-29T01:23:10;81.50;;;34.95;;
21036;SDS011;10677;50.942;4.028;2023-04-29T01:25:36;83.57;;;35.05;;
21036;SDS011;10677;50.942;4.028;2023-04-29T01:30:59;86.07;;;37.30;;
21036;SDS011;10677;50.942;4.028;2023-04-29T01:33:50;75.18;;;32.88;;
21036;SDS011;10677;50.942;4.028;2023-04-29T01:42:21;71.32;;;33.85;;
21036;SDS011;10677;50.942;4.028;2023-04-29T01:45:04;88.93;;;39.28;;
21036;SDS011;10677;50.942;4.028;2023-04-29T01:47:32;97.25;;;40.03;;
21036;SDS011;10677;50.942;4.028;2023-04-29T01:49:59;96.55;;;41.80;;
21036;SDS011;10677;50.942;4.028;2023-04-29T01:52:26;100.75;;;43.53;;
21036;SDS011;10677;50.942;4.028;2023-04-29T01:54:52;102.63;;;42.40;;
21036;SDS011;10677;50.942;4.028;2023-04-29T01:57:18;90.53;;;40.15;;
21036;SDS011;10677;50.942;4.028;2023-04-29T01:59:44;65.97;;;32.00;;
21036;SDS011;10677;50.942;4.028;2023-04-29T02:02:09;68.05;;;32.22;;
21036;SDS011;10677;50.942;4.028;2023-04-29T02:04:35;63.55;;;30.23;;
21036;SDS011;10677;50.942;4.028;2023-04-29T02:07:01;56.70;;;30.27;;
21036;SDS011;10677;50.942;4.028;2023-04-29T02:09:28;58.00;;;28.92;;
21036;SDS011;10677;50.942;4.028;2023-04-29T02:11:53;49.08;;;26.83;;
21036;SDS011;10677;50.942;4.028;2023-04-29T02:14:19;51.10;;;27.80;;
21036;SDS011;10677;50.942;4.028;2023-04-29T02:16:45;48.08;;;28.08;;
21036;SDS011;10677;50.942;4.028;2023-04-29T02:19:10;50.22;;;27.08;;
21036;SDS011;10677;50.942;4.028;2023-04-29T02:21:36;46.70;;;24.92;;
21036;SDS011;10677;50.942;4.028;2023-04-29T02:24:04;38.80;;;23.98;;
21036;SDS011;10677;50.942;4.028;2023-04-29T02:26:30;35.97;;;23.38;;
21036;SDS011;10677;50.942;4.028;2023-04-29T02:28:56;40.40;;;22.77;;
21036;SDS011;10677;50.942;4.028;2023-04-29T02:31:22;34.30;;;22.13;;
21036;SDS011;10677;50.942;4.028;2023-04-29T02:33:47;39.72;;;22.60;;
21036;SDS011;10677;50.942;4.028;2023-04-29T02:36:13;39.80;;;23.50;;
21036;SDS011;10677;50.942;4.028;2023-04-29T02:38:39;41.33;;;22.63;;
21036;SDS011;10677;50.942;4.028;2023-04-29T02:41:05;37.47;;;22.48;;
21036;SDS011;10677;50.942;4.028;2023-04-29T02:43:31;41.92;;;24.40;;
21036;SDS011;10677;50.942;4.028;2023-04-29T02:45:57;40.28;;;23.75;;
21036;SDS011;10677;50.942;4.028;2023-04-29T02:48:22;40.20;;;23.30;;
21036;SDS011;10677;50.942;4.028;2023-04-29T02:50:48;39.10;;;23.13;;
21036;SDS011;10677;50.942;4.028;2023-04-29T02:53:13;35.25;;;22.92;;
21036;SDS011;10677;50.942;4.028;2023-04-29T02:55:40;42.92;;;24.27;;
21036;SDS011;10677;50.942;4.028;2023-04-29T02:58:07;37.75;;;21.63;;
21036;SDS011;10677;50.942;4.028;2023-04-29T03:00:32;33.50;;;20.90;;
21036;SDS011;10677;50.942;4.028;2023-04-29T03:02:58;35.67;;;21.10;;
21036;SDS011;10677;50.942;4.028;2023-04-29T03:05:24;39.22;;;21.17;;
21036;SDS011;10677;50.942;4.028;2023-04-29T03:07:49;32.65;;;19.13;;
21036;SDS011;10677;50.942;4.028;2023-04-29T03:10:15;33.88;;;19.08;;
21036;SDS011;10677;50.942;4.028;2023-04-29T03:12:43;29.73;;;18.20;;
21036;SDS011;10677;50.942;4.028;2023-04-29T03:15:09;32.13;;;18.10;;
21036;SDS011;10677;50.942;4.028;2023-04-29T03:17:35;32.50;;;18.25;;
21036;SDS011;10677;50.942;4.028;2023-04-29T03:20:01;28.35;;;17.95;;
21036;SDS011;10677;50.942;4.028;2023-04-29T03:22:28;36.20;;;17.48;;
21036;SDS011;10677;50.942;4.028;2023-04-29T03:24:53;26.85;;;17.42;;
21036;SDS011;10677;50.942;4.028;2023-04-29T03:27:19;26.90;;;16.75;;
21036;SDS011;10677;50.942;4.028;2023-04-29T03:29:44;29.60;;;17.10;;
21036;SDS011;10677;50.942;4.028;2023-04-29T03:32:10;31.15;;;19.17;;
21036;SDS011;10677;50.942;4.028;2023-04-29T03:34:36;28.98;;;16.67;;
21036;SDS011;10677;50.942;4.028;2023-04-29T03:37:01;31.63;;;18.23;;
21036;SDS011;10677;50.942;4.028;2023-04-29T03:39:27;30.50;;;17.55;;
21036;SDS011;10677;50.942;4.028;2023-04-29T03:41:56;32.92;;;18.52;;
21036;SDS011;10677;50.942;4.028;2023-04-29T03:44:22;35.08;;;18.05;;
21036;SDS011;10677;50.942;4.028;2023-04-29T03:46:48;31.83;;;17.95;;
21036;SDS011;10677;50.942;4.028;2023-04-29T03:49:13;35.28;;;19.27;;
21036;SDS011;10677;50.942;4.028;2023-04-29T03:51:40;33.50;;;19.17;;
21036;SDS011;10677;50.942;4.028;2023-04-29T03:54:05;32.70;;;19.58;;
21036;SDS011;10677;50.942;4.028;2023-04-29T03:56:32;32.42;;;19.38;;
21036;SDS011;10677;50.942;4.028;2023-04-29T03:58:57;35.80;;;20.17;;
21036;SDS011;10677;50.942;4.028;2023-04-29T04:01:23;40.45;;;20.42;;
21036;SDS011;10677;50.942;4.028;2023-04-29T04:03:49;36.58;;;19.83;;
21036;SDS011;10677;50.942;4.028;2023-04-29T04:06:16;36.58;;;21.05;;
21036;SDS011;10677;50.942;4.028;2023-04-29T04:08:41;32.55;;;19.17;;
21036;SDS011;10677;50.942;4.028;2023-04-29T04:11:07;31.67;;;20.15;;
21036;SDS011;10677;50.942;4.028;2023-04-29T04:13:33;40.95;;;21.23;;
21036;SDS011;10677;50.942;4.028;2023-04-29T04:15:59;34.10;;;18.08;;
21036;SDS011;10677;50.942;4.028;2023-04-29T04:18:25;33.03;;;17.75;;
21036;SDS011;10677;50.942;4.028;2023-04-29T04:20:51;32.47;;;18.30;;
21036;SDS011;10677;50.942;4.028;2023-04-29T04:23:16;31.40;;;17.33;;
21036;SDS011;10677;50.942;4.028;2023-04-29T04:25:45;29.67;;;17.55;;
21036;SDS011;10677;50.942;4.028;2023-04-29T04:28:11;33.10;;;16.58;;
21036;SDS011;10677;50.942;4.028;2023-04-29T04:30:37;28.17;;;16.60;;
21036;SDS011;10677;50.942;4.028;2023-04-29T04:33:02;28.55;;;16.95;;
21036;SDS011;10677;50.942;4.028;2023-04-29T04:35:28;28.95;;;16.38;;
21036;SDS011;10677;50.942;4.028;2023-04-29T04:37:54;31.85;;;16.83;;
21036;SDS011;10677;50.942;4.028;2023-04-29T04:40:19;31.65;;;17.60;;
21036;SDS011;10677;50.942;4.028;2023-04-29T04:42:45;27.15;;;16.10;;
21036;SDS011;10677;50.942;4.028;2023-04-29T04:45:11;25.05;;;13.45;;
21036;SDS011;10677;50.942;4.028;2023-04-29T04:47:38;19.40;;;11.95;;
21036;SDS011;10677;50.942;4.028;2023-04-29T04:50:05;21.77;;;11.43;;
21036;SDS011;10677;50.942;4.028;2023-04-29T04:52:32;23.25;;;12.48;;
21036;SDS011;10677;50.942;4.028;2023-04-29T04:54:58;23.45;;;13.27;;
21036;SDS011;10677;50.942;4.028;2023-04-29T04:57:23;21.00;;;11.45;;
21036;SDS011;10677;50.942;4.028;2023-04-29T04:59:49;19.50;;;11.45;;
21036;SDS011;10677;50.942;4.028;2023-04-29T05:02:15;21.40;;;13.00;;
21036;SDS011;10677;50.942;4.028;2023-04-29T05:04:40;23.20;;;12.75;;
21036;SDS011;10677;50.942;4.028;2023-04-29T05:07:06;23.60;;;14.05;;
21036;SDS011;10677;50.942;4.028;2023-04-29T05:09:32;22.00;;;12.82;;
21036;SDS011;10677;50.942;4.028;2023-04-29T05:11:57;22.65;;;13.95;;
21036;SDS011;10677;50.942;4.028;2023-04-29T05:14:24;28.75;;;14.98;;
21036;SDS011;10677;50.942;4.028;2023-04-29T05:16:50;23.02;;;14.02;;
21036;SDS011;10677;50.942;4.028;2023-04-29T05:19:16;22.15;;;14.00;;
21036;SDS011;10677;50.942;4.028;2023-04-29T05:21:43;25.95;;;15.50;;
21036;SDS011;10677;50.942;4.028;2023-04-29T05:24:08;22.90;;;15.38;;
21036;SDS011;10677;50.942;4.028;2023-04-29T05:26:34;29.00;;;16.55;;
21036;SDS011;10677;50.942;4.028;2023-04-29T05:29:00;26.42;;;16.85;;
21036;SDS011;10677;50.942;4.028;2023-04-29T05:31:25;27.15;;;17.33;;
21036;SDS011;10677;50.942;4.028;2023-04-29T05:33:52;27.27;;;16.63;;
21036;SDS011;10677;50.942;4.028;2023-04-29T05:36:18;24.27;;;15.57;;
21036;SDS011;10677;50.942;4.028;2023-04-29T05:38:44;28.70;;;17.42;;
21036;SDS011;10677;50.942;4.028;2023-04-29T05:41:10;27.45;;;17.63;;
21036;SDS011;10677;50.942;4.028;2023-04-29T05:43:36;25.60;;;16.70;;
21036;SDS011;10677;50.942;4.028;2023-04-29T05:46:01;25.90;;;15.35;;
21036;SDS011;10677;50.942;4.028;2023-04-29T05:48:27;28.38;;;16.48;;
21036;SDS011;10677;50.942;4.028;2023-04-29T05:50:53;26.25;;;16.10;;
21036;SDS011;10677;50.942;4.028;2023-04-29T05:53:19;28.13;;;15.63;;
21036;SDS011;10677;50.942;4.028;2023-04-29T05:55:45;29.60;;;16.02;;
21036;SDS011;10677;50.942;4.028;2023-04-29T05:58:11;28.23;;;16.17;;
21036;SDS011;10677;50.942;4.028;2023-04-29T06:00:39;30.45;;;15.10;;
21036;SDS011;10677;50.942;4.028;2023-04-29T06:03:04;24.77;;;16.27;;
21036;SDS011;10677;50.942;4.028;2023-04-29T06:05:30;23.00;;;14.73;;
21036;SDS011;10677;50.942;4.028;2023-04-29T06:07:56;29.25;;;16.10;;
21036;SDS011;10677;50.942;4.028;2023-04-29T06:10:22;27.42;;;15.25;;
21036;SDS011;10677;50.942;4.028;2023-04-29T06:12:48;25.77;;;15.57;;
21036;SDS011;10677;50.942;4.028;2023-04-29T06:15:15;25.65;;;14.57;;
21036;SDS011;10677;50.942;4.028;2023-04-29T06:17:41;26.63;;;15.85;;
21036;SDS011;10677;50.942;4.028;2023-04-29T06:20:07;30.98;;;15.65;;
21036;SDS011;10677;50.942;4.028;2023-04-29T06:22:33;28.17;;;15.57;;
21036;SDS011;10677;50.942;4.028;2023-04-29T06:24:59;30.58;;;16.02;;
21036;SDS011;10677;50.942;4.028;2023-04-29T06:27:25;30.83;;;16.83;;
21036;SDS011;10677;50.942;4.028;2023-04-29T06:29:50;24.05;;;14.82;;
21036;SDS011;10677;50.942;4.028;2023-04-29T06:32:16;27.58;;;15.57;;
21036;SDS011;10677;50.942;4.028;2023-04-29T06:34:42;24.60;;;15.48;;
21036;SDS011;10677;50.942;4.028;2023-04-29T06:37:09;27.83;;;14.77;;
21036;SDS011;10677;50.942;4.028;2023-04-29T06:39:35;25.50;;;14.27;;
21036;SDS011;10677;50.942;4.028;2023-04-29T06:42:00;28.23;;;14.65;;
21036;SDS011;10677;50.942;4.028;2023-04-29T06:44:27;28.65;;;15.43;;
21036;SDS011;10677;50.942;4.028;2023-04-29T06:46:53;21.95;;;14.57;;
21036;SDS011;10677;50.942;4.028;2023-04-29T06:49:18;22.92;;;14.40;;
21036;SDS011;10677;50.942;4.028;2023-04-29T06:51:44;22.25;;;14.23;;
21036;SDS011;10677;50.942;4.028;2023-04-29T06:54:10;23.27;;;14.65;;
21036;SDS011;10677;50.942;4.028;2023-04-29T06:56:35;23.98;;;14.20;;
21036;SDS011;10677;50.942;4.028;2023-04-29T06:59:01;25.27;;;14.15;;
21036;SDS011;10677;50.942;4.028;2023-04-29T07:01:28;27.02;;;16.05;;
21036;SDS011;10677;50.942;4.028;2023-04-29T07:03:54;28.48;;;14.90;;
21036;SDS011;10677;50.942;4.028;2023-04-29T07:06:19;23.67;;;14.20;;
21036;SDS011;10677;50.942;4.028;2023-04-29T07:08:45;22.95;;;14.52;;
21036;SDS011;10677;50.942;4.028;2023-04-29T07:11:10;23.83;;;14.98;;
21036;SDS011;10677;50.942;4.028;2023-04-29T07:13:36;23.52;;;14.73;;
21036;SDS011;10677;50.942;4.028;2023-04-29T07:16:02;26.23;;;15.73;;
21036;SDS011;10677;50.942;4.028;2023-04-29T07:18:27;24.73;;;16.17;;
21036;SDS011;10677;50.942;4.028;2023-04-29T07:20:53;27.58;;;15.45;;
21036;SDS011;10677;50.942;4.028;2023-04-29T07:23:19;27.50;;;16.20;;
21036;SDS011;10677;50.942;4.028;2023-04-29T07:25:45;30.48;;;17.38;;
21036;SDS011;10677;50.942;4.028;2023-04-29T07:28:11;29.35;;;16.50;;
21036;SDS011;10677;50.942;4.028;2023-04-29T07:30:37;28.27;;;16.13;;
21036;SDS011;10677;50.942;4.028;2023-04-29T07:33:02;24.88;;;15.90;;
21036;SDS011;10677;50.942;4.028;2023-04-29T07:35:28;25.95;;;16.05;;
21036;SDS011;10677;50.942;4.028;2023-04-29T07:37:54;27.13;;;16.20;;
21036;SDS011;10677;50.942;4.028;2023-04-29T07:40:20;27.05;;;16.00;;
21036;SDS011;10677;50.942;4.028;2023-04-29T07:42:45;27.40;;;15.75;;
21036;SDS011;10677;50.942;4.028;2023-04-29T07:45:11;27.92;;;16.35;;
21036;SDS011;10677;50.942;4.028;2023-04-29T07:47:38;26.45;;;15.70;;
21036;SDS011;10677;50.942;4.028;2023-04-29T07:50:04;25.92;;;15.80;;
21036;SDS011;10677;50.942;4.028;2023-04-29T07:52:30;33.67;;;16.95;;
21036;SDS011;10677;50.942;4.028;2023-04-29T07:54:55;31.50;;;16.33;;
21036;SDS011;10677;50.942;4.028;2023-04-29T07:57:21;26.73;;;16.45;;
21036;SDS011;10677;50.942;4.028;2023-04-29T07:59:51;26.30;;;16.63;;
21036;SDS011;10677;50.942;4.028;2023-04-29T08:02:20;24.10;;;14.70;;
21036;SDS011;10677;50.942;4.028;2023-04-29T08:04:50;26.52;;;15.18;;
21036;SDS011;10677;50.942;4.028;2023-04-29T08:07:16;26.73;;;15.27;;
21036;SDS011;10677;50.942;4.028;2023-04-29T08:09:41;27.63;;;16.13;;
21036;SDS011;10677;50.942;4.028;2023-04-29T08:12:07;24.50;;;15.63;;
21036;SDS011;10677;50.942;4.028;2023-04-29T08:14:33;22.83;;;15.23;;
21036;SDS011;10677;50.942;4.028;2023-04-29T08:16:59;24.67;;;15.27;;
21036;SDS011;10677;50.942;4.028;2023-04-29T08:19:24;23.60;;;15.48;;
21036;SDS011;10677;50.942;4.028;2023-04-29T08:21:50;24.92;;;14.43;;
21036;SDS011;10677;50.942;4.028;2023-04-29T08:24:16;22.35;;;14.70;;
21036;SDS011;10677;50.942;4.028;2023-04-29T08:26:41;28.40;;;15.10;;
21036;SDS011;10677;50.942;4.028;2023-04-29T08:29:07;21.70;;;13.63;;
21036;SDS011;10677;50.942;4.028;2023-04-29T08:31:33;24.77;;;15.15;;
21036;SDS011;10677;50.942;4.028;2023-04-29T08:33:59;21.80;;;13.40;;
21036;SDS011;10677;50.942;4.028;2023-04-29T08:36:24;20.02;;;13.95;;
21036;SDS011;10677;50.942;4.028;2023-04-29T08:38:52;23.20;;;14.23;;
21036;SDS011;10677;50.942;4.028;2023-04-29T08:41:18;22.40;;;14.50;;
21036;SDS011;10677;50.942;4.028;2023-04-29T08:43:44;21.80;;;13.82;;
21036;SDS011;10677;50.942;4.028;2023-04-29T08:46:10;25.00;;;14.65;;
21036;SDS011;10677;50.942;4.028;2023-04-29T08:48:36;23.48;;;14.70;;
21036;SDS011;10677;50.942;4.028;2023-04-29T08:51:04;23.05;;;14.68;;
21036;SDS011;10677;50.942;4.028;2023-04-29T08:53:30;23.35;;;14.93;;
21036;SDS011;10677;50.942;4.028;2023-04-29T08:55:56;21.95;;;14.35;;
21036;SDS011;10677;50.942;4.028;2023-04-29T08:58:27;21.48;;;14.90;;
21036;SDS011;10677;50.942;4.028;2023-04-29T09:00:58;21.02;;;15.05;;
21036;SDS011;10677;50.942;4.028;2023-04-29T09:03:33;22.13;;;15.65;;
21036;SDS011;10677;50.942;4.028;2023-04-29T09:06:04;23.77;;;15.05;;
21036;SDS011;10677;50.942;4.028;2023-04-29T09:08:31;24.27;;;15.57;;
21036;SDS011;10677;50.942;4.028;2023-04-29T09:10:57;20.88;;;15.30;;
21036;SDS011;10677;50.942;4.028;2023-04-29T09:13:29;24.55;;;15.85;;
21036;SDS011;10677;50.942;4.028;2023-04-29T09:15:56;26.98;;;16.65;;
21036;SDS011;10677;50.942;4.028;2023-04-29T09:18:41;24.85;;;15.32;;
21036;SDS011;10677;50.942;4.028;2023-04-29T09:23:54;25.58;;;14.65;;
21036;SDS011;10677;50.942;4.028;2023-04-29T09:26:21;23.10;;;14.50;;
21036;SDS011;10677;50.942;4.028;2023-04-29T09:31:38;21.15;;;14.90;;
21036;SDS011;10677;50.942;4.028;2023-04-29T09:34:04;18.42;;;14.07;;
21036;SDS011;10677;50.942;4.028;2023-04-29T09:39:14;23.38;;;13.25;;
21036;SDS011;10677;50.942;4.028;2023-04-29T09:44:20;17.88;;;12.75;;
21036;SDS011;10677;50.942;4.028;2023-04-29T09:49:22;21.75;;;14.15;;
21036;SDS011;10677;50.942;4.028;2023-04-29T09:52:07;18.85;;;13.82;;
21036;SDS011;10677;50.942;4.028;2023-04-29T09:54:35;22.52;;;14.75;;
21036;SDS011;10677;50.942;4.028;2023-04-29T09:57:06;23.00;;;14.00;;
21036;SDS011;10677;50.942;4.028;2023-04-29T09:59:33;22.02;;;14.70;;
21036;SDS011;10677;50.942;4.028;2023-04-29T10:02:02;18.92;;;13.07;;
21036;SDS011;10677;50.942;4.028;2023-04-29T10:04:39;19.60;;;13.48;;
21036;SDS011;10677;50.942;4.028;2023-04-29T10:07:06;23.23;;;13.75;;
21036;SDS011;10677;50.942;4.028;2023-04-29T10:09:33;20.70;;;14.30;;
21036;SDS011;10677;50.942;4.028;2023-04-29T10:12:02;19.58;;;14.27;;
21036;SDS011;10677;50.942;4.028;2023-04-29T10:14:30;23.48;;;14.50;;
21036;SDS011;10677;50.942;4.028;2023-04-29T10:17:07;21.95;;;13.98;;
21036;SDS011;10677;50.942;4.028;2023-04-29T10:19:52;20.45;;;14.88;;
21036;SDS011;10677;50.942;4.028;2023-04-29T10:22:53;23.45;;;14.23;;
21036;SDS011;10677;50.942;4.028;2023-04-29T10:25:21;23.85;;;15.00;;
21036;SDS011;10677;50.942;4.028;2023-04-29T10:27:48;20.23;;;14.10;;
21036;SDS011;10677;50.942;4.028;2023-04-29T10:30:18;21.95;;;14.73;;
21036;SDS011;10677;50.942;4.028;2023-04-29T10:32:46;21.67;;;14.35;;
21036;SDS011;10677;50.942;4.028;2023-04-29T10:35:13;19.08;;;14.07;;
21036;SDS011;10677;50.942;4.028;2023-04-29T10:37:40;17.92;;;13.80;;
21036;SDS011;10677;50.942;4.028;2023-04-29T10:40:11;17.85;;;13.82;;
21036;SDS011;10677;50.942;4.028;2023-04-29T10:50:40;20.40;;;14.52;;
21036;SDS011;10677;50.942;4.028;2023-04-29T10:53:25;19.83;;;14.82;;
21036;SDS011;10677;50.942;4.028;2023-04-29T10:55:52;20.10;;;14.40;;
21036;SDS011;10677;50.942;4.028;2023-04-29T10:58:33;19.35;;;13.98;;
21036;SDS011;10677;50.942;4.028;2023-04-29T11:01:06;18.05;;;12.48;;
21036;SDS011;10677;50.942;4.028;2023-04-29T11:03:44;18.35;;;11.55;;
21036;SDS011;10677;50.942;4.028;2023-04-29T11:06:44;16.08;;;11.95;;
21036;SDS011;10677;50.942;4.028;2023-04-29T11:09:13;18.08;;;12.30;;
21036;SDS011;10677;50.942;4.028;2023-04-29T11:15:09;19.25;;;11.50;;
21036;SDS011;10677;50.942;4.028;2023-04-29T11:17:17;16.88;;;11.52;;
21036;SDS011;10677;50.942;4.028;2023-04-29T11:19:50;19.98;;;12.75;;
21036;SDS011;10677;50.942;4.028;2023-04-29T11:27:14;15.25;;;11.15;;
21036;SDS011;10677;50.942;4.028;2023-04-29T11:29:40;15.88;;;11.20;;
21036;SDS011;10677;50.942;4.028;2023-04-29T11:32:06;17.73;;;11.45;;
21036;SDS011;10677;50.942;4.028;2023-04-29T11:34:32;18.38;;;11.82;;
21036;SDS011;10677;50.942;4.028;2023-04-29T11:36:58;17.58;;;12.15;;
21036;SDS011;10677;50.942;4.028;2023-04-29T11:39:25;16.50;;;12.02;;
21036;SDS011;10677;50.942;4.028;2023-04-29T11:41:51;15.77;;;12.00;;
21036;SDS011;10677;50.942;4.028;2023-04-29T11:44:27;15.43;;;11.75;;
21036;SDS011;10677;50.942;4.028;2023-04-29T11:46:52;14.73;;;11.25;;
21036;SDS011;10677;50.942;4.028;2023-04-29T11:49:34;15.25;;;11.85;;
21036;SDS011;10677;50.942;4.028;2023-04-29T11:52:01;14.05;;;11.23;;
21036;SDS011;10677;50.942;4.028;2023-04-29T11:54:28;15.70;;;11.68;;
21036;SDS011;10677;50.942;4.028;2023-04-29T11:56:54;17.70;;;12.02;;
21036;SDS011;10677;50.942;4.028;2023-04-29T11:59:21;19.55;;;13.18;;
21036;SDS011;10677;50.942;4.028;2023-04-29T12:01:50;13.88;;;11.45;;
21036;SDS011;10677;50.942;4.028;2023-04-29T12:04:16;18.70;;;12.63;;
21036;SDS011;10677;50.942;4.028;2023-04-29T12:06:43;15.43;;;11.70;;
21036;SDS011;10677;50.942;4.028;2023-04-29T12:09:09;15.40;;;12.00;;
21036;SDS011;10677;50.942;4.028;2023-04-29T12:11:35;16.50;;;12.38;;
21036;SDS011;10677;50.942;4.028;2023-04-29T12:14:02;14.32;;;11.15;;
21036;SDS011;10677;50.942;4.028;2023-04-29T12:16:30;14.05;;;11.07;;
21036;SDS011;10677;50.942;4.028;2023-04-29T12:18:56;16.17;;;11.65;;
21036;SDS011;10677;50.942;4.028;2023-04-29T12:21:23;15.32;;;11.45;;
21036;SDS011;10677;50.942;4.028;2023-04-29T12:23:50;17.73;;;11.30;;
21036;SDS011;10677;50.942;4.028;2023-04-29T12:26:17;14.82;;;11.48;;
21036;SDS011;10677;50.942;4.028;2023-04-29T12:28:44;17.48;;;13.40;;
21036;SDS011;10677;50.942;4.028;2023-04-29T12:31:13;17.35;;;12.02;;
21036;SDS011;10677;50.942;4.028;2023-04-29T12:33:41;14.68;;;11.85;;
21036;SDS011;10677;50.942;4.028;2023-04-29T12:36:16;18.30;;;12.50;;
21036;SDS011;10677;50.942;4.028;2023-04-29T12:38:43;14.80;;;10.82;;
21036;SDS011;10677;50.942;4.028;2023-04-29T12:41:11;12.77;;;9.55;;
21036;SDS011;10677;50.942;4.028;2023-04-29T12:43:41;15.43;;;11.20;;
21036;SDS011;10677;50.942;4.028;2023-04-29T12:46:08;14.15;;;11.23;;
21036;SDS011;10677;50.942;4.028;2023-04-29T12:48:37;15.70;;;11.55;;
21036;SDS011;10677;50.942;4.028;2023-04-29T12:51:07;17.30;;;12.68;;
21036;SDS011;10677;50.942;4.028;2023-04-29T12:53:36;16.30;;;12.15;;
21036;SDS011;10677;50.942;4.028;2023-04-29T12:56:03;16.85;;;14.25;;
21036;SDS011;10677;50.942;4.028;2023-04-29T12:58:29;19.25;;;14.30;;
21036;SDS011;10677;50.942;4.028;2023-04-29T13:00:56;15.95;;;12.68;;
21036;SDS011;10677;50.942;4.028;2023-04-29T13:03:22;16.45;;;12.77;;
21036;SDS011;10677;50.942;4.028;2023-04-29T13:05:48;18.35;;;12.93;;
21036;SDS011;10677;50.942;4.028;2023-04-29T13:08:17;15.98;;;12.20;;
21036;SDS011;10677;50.942;4.028;2023-04-29T13:10:43;18.00;;;12.75;;
21036;SDS011;10677;50.942;4.028;2023-04-29T13:13:10;15.00;;;11.60;;
21036;SDS011;10677;50.942;4.028;2023-04-29T13:15:35;16.15;;;11.75;;
21036;SDS011;10677;50.942;4.028;2023-04-29T13:18:03;16.92;;;12.93;;
21036;SDS011;10677;50.942;4.028;2023-04-29T13:20:29;16.65;;;12.88;;
21036;SDS011;10677;50.942;4.028;2023-04-29T13:22:54;15.30;;;12.00;;
21036;SDS011;10677;50.942;4.028;2023-04-29T13:25:20;17.33;;;12.85;;
21036;SDS011;10677;50.942;4.028;2023-04-29T13:27:46;17.13;;;12.85;;
21036;SDS011;10677;50.942;4.028;2023-04-29T13:30:11;15.88;;;12.30;;
21036;SDS011;10677;50.942;4.028;2023-04-29T13:32:37;18.27;;;12.45;;
21036;SDS011;10677;50.942;4.028;2023-04-29T13:35:04;16.08;;;12.60;;
21036;SDS011;10677;50.942;4.028;2023-04-29T13:37:31;17.33;;;12.48;;
21036;SDS011;10677;50.942;4.028;2023-04-29T13:39:57;16.70;;;12.60;;
21036;SDS011;10677;50.942;4.028;2023-04-29T13:42:22;14.77;;;12.65;;
21036;SDS011;10677;50.942;4.028;2023-04-29T13:44:48;16.05;;;12.35;;
21036;SDS011;10677;50.942;4.028;2023-04-29T13:47:15;18.23;;;12.07;;
21036;SDS011;10677;50.942;4.028;2023-04-29T13:49:41;17.50;;;13.20;;
21036;SDS011;10677;50.942;4.028;2023-04-29T13:52:11;15.80;;;12.80;;
21036;SDS011;10677;50.942;4.028;2023-04-29T13:54:37;15.40;;;12.32;;
21036;SDS011;10677;50.942;4.028;2023-04-29T13:57:03;17.10;;;13.60;;
21036;SDS011;10677;50.942;4.028;2023-04-29T13:59:30;17.40;;;14.00;;
21036;SDS011;10677;50.942;4.028;2023-04-29T14:01:56;19.63;;;13.15;;
21036;SDS011;10677;50.942;4.028;2023-04-29T14:04:24;18.52;;;13.90;;
21036;SDS011;10677;50.942;4.028;2023-04-29T14:06:51;15.63;;;12.75;;
21036;SDS011;10677;50.942;4.028;2023-04-29T14:09:19;20.60;;;14.50;;
21036;SDS011;10677;50.942;4.028;2023-04-29T14:11:46;19.40;;;13.75;;
21036;SDS011;10677;50.942;4.028;2023-04-29T14:14:13;18.02;;;13.80;;
21036;SDS011;10677;50.942;4.028;2023-04-29T14:16:39;17.15;;;13.82;;
21036;SDS011;10677;50.942;4.028;2023-04-29T14:19:05;18.52;;;13.15;;
21036;SDS011;10677;50.942;4.028;2023-04-29T14:21:31;17.73;;;13.02;;
21036;SDS011;10677;50.942;4.028;2023-04-29T14:23:58;20.70;;;13.93;;
21036;SDS011;10677;50.942;4.028;2023-04-29T14:26:25;16.08;;;12.88;;
21036;SDS011;10677;50.942;4.028;2023-04-29T14:28:51;17.38;;;12.82;;
21036;SDS011;10677;50.942;4.028;2023-04-29T14:31:27;13.48;;;11.23;;
21036;SDS011;10677;50.942;4.028;2023-04-29T14:34:01;16.85;;;12.23;;
21036;SDS011;10677;50.942;4.028;2023-04-29T14:36:26;15.95;;;12.10;;
21036;SDS011;10677;50.942;4.028;2023-04-29T14:38:52;16.27;;;11.18;;
21036;SDS011;10677;50.942;4.028;2023-04-29T14:41:18;15.85;;;11.23;;
21036;SDS011;10677;50.942;4.028;2023-04-29T14:43:45;16.13;;;12.20;;
21036;SDS011;10677;50.942;4.028;2023-04-29T14:46:11;16.23;;;12.73;;
21036;SDS011;10677;50.942;4.028;2023-04-29T14:48:37;15.18;;;12.10;;
21036;SDS011;10677;50.942;4.028;2023-04-29T14:51:03;16.23;;;11.40;;
21036;SDS011;10677;50.942;4.028;2023-04-29T14:53:28;15.73;;;11.32;;
21036;SDS011;10677;50.942;4.028;2023-04-29T14:55:54;13.65;;;11.57;;
21036;SDS011;10677;50.942;4.028;2023-04-29T14:58:20;13.65;;;10.70;;
21036;SDS011;10677;50.942;4.028;2023-04-29T15:00:46;16.08;;;11.63;;
21036;SDS011;10677;50.942;4.028;2023-04-29T15:03:12;14.65;;;11.13;;
21036;SDS011;10677;50.942;4.028;2023-04-29T15:05:37;14.93;;;11.57;;
21036;SDS011;10677;50.942;4.028;2023-04-29T15:08:03;15.68;;;12.15;;
21036;SDS011;10677;50.942;4.028;2023-04-29T15:10:29;19.77;;;12.27;;